sensor_id;sensor_type;location;lat;lon;timestamp;P1;durP1;ratioP1;P2;durP2;ratioP2
25069;SDS011;13064;48.162;11.536;2022-12-31T00:00:46;0.43;;;0.13;;
25069;SDS011;13064;48.162;11.536;2022-12-31T00:03:14;1.00;;;0.25;;
25069;SDS011;13064;48.162;11.536;2022-12-31T00:05:42;0.20;;;0.20;;
25069;SDS011;13064;48.162;11.536;2022-12-31T00:08:10;0.22;;;0.20;;
25069;SDS011;13064;48.162;11.536;2022-12-31T00:10:37;0.22;;;0.22;;
25069;SDS011;13064;48.162;11.536;2022-12-31T00:13:07;0.47;;;0.30;;
25069;SDS011;13064;48.162;11.536;2022-12-31T00:15:36;0.10;;;0.10;;
25069;SDS011;13064;48.162;11.536;2022-12-31T00:18:04;0.68;;;0.20;;
25069;SDS011;13064;48.162;11.536;2022-12-31T00:20:32;0.20;;;0.20;;
25069;SDS011;13064;48.162;11.536;2022-12-31T00:23:00;0.13;;;0.10;;
25069;SDS011;13064;48.162;11.536;2022-12-31T00:25:27;0.75;;;0.30;;
25069;SDS011;13064;48.162;11.536;2022-12-31T00:27:55;1.02;;;0.30;;
25069;SDS011;13064;48.162;11.536;2022-12-31T00:30:22;0.10;;;0.10;;
25069;SDS011;13064;48.162;11.536;2022-12-31T00:32:50;0.88;;;0.30;;
25069;SDS011;13064;48.162;11.536;2022-12-31T00:35:17;0.85;;;0.20;;
25069;SDS011;13064;48.162;11.536;2022-12-31T00:37:45;0.38;;;0.10;;
25069;SDS011;13064;48.162;11.536;2022-12-31T00:40:12;1.00;;;0.17;;
25069;SDS011;13064;48.162;11.536;2022-12-31T00:42:40;0.15;;;0.15;;
25069;SDS011;13064;48.162;11.536;2022-12-31T00:45:08;0.10;;;0.10;;
25069;SDS011;13064;48.162;11.536;2022-12-31T00:47:35;0.28;;;0.13;;
25069;SDS011;13064;48.162;11.536;2022-12-31T00:50:03;0.35;;;0.15;;
25069;SDS011;13064;48.162;11.536;2022-12-31T00:52:31;0.10;;;0.10;;
25069;SDS011;13064;48.162;11.536;2022-12-31T00:54:58;0.28;;;0.20;;
25069;SDS011;13064;48.162;11.536;2022-12-31T00:57:26;0.10;;;0.10;;
25069;SDS011;13064;48.162;11.536;2022-12-31T00:59:53;0.17;;;0.17;;
25069;SDS011;13064;48.162;11.536;2022-12-31T01:02:21;0.25;;;0.15;;
25069;SDS011;13064;48.162;11.536;2022-12-31T01:04:49;0.77;;;0.10;;
25069;SDS011;13064;48.162;11.536;2022-12-31T01:07:16;0.13;;;0.13;;
25069;SDS011;13064;48.162;11.536;2022-12-31T01:09:44;0.57;;;0.10;;
25069;SDS011;13064;48.162;11.536;2022-12-31T01:12:11;0.10;;;0.10;;
25069;SDS011;13064;48.162;11.536;2022-12-31T01:14:39;0.93;;;0.25;;
25069;SDS011;13064;48.162;11.536;2022-12-31T01:17:07;0.30;;;0.30;;
25069;SDS011;13064;48.162;11.536;2022-12-31T01:19:34;0.25;;;0.10;;
25069;SDS011;13064;48.162;11.536;2022-12-31T01:22:02;0.82;;;0.22;;
25069;SDS011;13064;48.162;11.536;2022-12-31T01:24:29;0.20;;;0.20;;
25069;SDS011;13064;48.162;11.536;2022-12-31T01:26:57;0.30;;;0.30;;
25069;SDS011;13064;48.162;11.536;2022-12-31T01:29:25;1.02;;;0.20;;
25069;SDS011;13064;48.162;11.536;2022-12-31T01:31:52;0.10;;;0.10;;
25069;SDS011;13064;48.162;11.536;2022-12-31T01:34:20;0.98;;;0.20;;
25069;SDS011;13064;48.162;11.536;2022-12-31T01:36:48;0.10;;;0.10;;
25069;SDS011;13064;48.162;11.536;2022-12-31T01:39:15;1.10;;;0.17;;
25069;SDS011;13064;48.162;11.536;2022-12-31T01:41:44;0.40;;;0.20;;
25069;SDS011;13064;48.162;11.536;2022-12-31T01:46:40;0.38;;;0.22;;
25069;SDS011;13064;48.162;11.536;2022-12-31T01:49:09;0.50;;;0.15;;
25069;SDS011;13064;48.162;11.536;2022-12-31T01:51:39;0.82;;;0.22;;
25069;SDS011;13064;48.162;11.536;2022-12-31T01:54:08;0.82;;;0.20;;
25069;SDS011;13064;48.162;11.536;2022-12-31T01:56:36;0.85;;;0.10;;
25069;SDS011;13064;48.162;11.536;2022-12-31T01:59:05;0.65;;;0.30;;
25069;SDS011;13064;48.162;11.536;2022-12-31T02:01:34;1.33;;;0.20;;
25069;SDS011;13064;48.162;11.536;2022-12-31T02:04:04;0.50;;;0.30;;
25069;SDS011;13064;48.162;11.536;2022-12-31T02:06:43;0.60;;;0.10;;
25069;SDS011;13064;48.162;11.536;2022-12-31T02:09:12;2.65;;;0.20;;
25069;SDS011;13064;48.162;11.536;2022-12-31T02:11:40;0.10;;;0.10;;
25069;SDS011;13064;48.162;11.536;2022-12-31T02:14:12;0.15;;;0.10;;
25069;SDS011;13064;48.162;11.536;2022-12-31T02:21:45;0.40;;;0.30;;
25069;SDS011;13064;48.162;11.536;2022-12-31T02:24:25;0.10;;;0.10;;
25069;SDS011;13064;48.162;11.536;2022-12-31T02:27:00;0.57;;;0.30;;
25069;SDS011;13064;48.162;11.536;2022-12-31T02:32:29;0.25;;;0.13;;
25069;SDS011;13064;48.162;11.536;2022-12-31T02:35:45;0.95;;;0.20;;
25069;SDS011;13064;48.162;11.536;2022-12-31T02:37:47;0.38;;;0.20;;
25069;SDS011;13064;48.162;11.536;2022-12-31T02:40:16;0.43;;;0.28;;
25069;SDS011;13064;48.162;11.536;2022-12-31T02:42:45;0.40;;;0.20;;
25069;SDS011;13064;48.162;11.536;2022-12-31T02:45:22;0.65;;;0.10;;
25069;SDS011;13064;48.162;11.536;2022-12-31T02:48:07;0.57;;;0.20;;
25069;SDS011;13064;48.162;11.536;2022-12-31T02:50:42;0.30;;;0.30;;
25069;SDS011;13064;48.162;11.536;2022-12-31T03:01:28;0.45;;;0.10;;
25069;SDS011;13064;48.162;11.536;2022-12-31T03:04:16;0.10;;;0.10;;
25069;SDS011;13064;48.162;11.536;2022-12-31T03:07:01;0.20;;;0.20;;
25069;SDS011;13064;48.162;11.536;2022-12-31T03:09:29;0.20;;;0.20;;
25069;SDS011;13064;48.162;11.536;2022-12-31T03:11:56;0.20;;;0.20;;
25069;SDS011;13064;48.162;11.536;2022-12-31T03:14:43;1.10;;;0.10;;
25069;SDS011;13064;48.162;11.536;2022-12-31T03:17:10;0.85;;;0.22;;
25069;SDS011;13064;48.162;11.536;2022-12-31T03:19:38;0.13;;;0.13;;
25069;SDS011;13064;48.162;11.536;2022-12-31T03:22:24;0.13;;;0.13;;
25069;SDS011;13064;48.162;11.536;2022-12-31T03:27:44;0.43;;;0.10;;
25069;SDS011;13064;48.162;11.536;2022-12-31T03:30:13;0.30;;;0.20;;
25069;SDS011;13064;48.162;11.536;2022-12-31T03:32:41;1.08;;;0.13;;
25069;SDS011;13064;48.162;11.536;2022-12-31T03:35:09;0.10;;;0.10;;
25069;SDS011;13064;48.162;11.536;2022-12-31T03:37:38;0.30;;;0.20;;
25069;SDS011;13064;48.162;11.536;2022-12-31T03:40:06;0.32;;;0.22;;
25069;SDS011;13064;48.162;11.536;2022-12-31T03:42:34;0.00;;;0.00;;
25069;SDS011;13064;48.162;11.536;2022-12-31T03:45:02;0.10;;;0.10;;
25069;SDS011;13064;48.162;11.536;2022-12-31T03:47:30;0.13;;;0.13;;
25069;SDS011;13064;48.162;11.536;2022-12-31T03:49:57;0.10;;;0.10;;
25069;SDS011;13064;48.162;11.536;2022-12-31T03:52:25;0.63;;;0.20;;
25069;SDS011;13064;48.162;11.536;2022-12-31T03:54:52;0.20;;;0.10;;
25069;SDS011;13064;48.162;11.536;2022-12-31T03:57:20;0.13;;;0.10;;
25069;SDS011;13064;48.162;11.536;2022-12-31T03:59:47;0.17;;;0.17;;
25069;SDS011;13064;48.162;11.536;2022-12-31T04:02:15;1.25;;;0.28;;
25069;SDS011;13064;48.162;11.536;2022-12-31T04:04:44;0.10;;;0.10;;
25069;SDS011;13064;48.162;11.536;2022-12-31T04:07:12;0.63;;;0.20;;
25069;SDS011;13064;48.162;11.536;2022-12-31T04:09:39;0.88;;;0.20;;
25069;SDS011;13064;48.162;11.536;2022-12-31T04:12:07;0.43;;;0.30;;
25069;SDS011;13064;48.162;11.536;2022-12-31T04:14:35;0.10;;;0.10;;
25069;SDS011;13064;48.162;11.536;2022-12-31T04:17:03;0.40;;;0.25;;
25069;SDS011;13064;48.162;11.536;2022-12-31T04:19:30;0.10;;;0.10;;
25069;SDS011;13064;48.162;11.536;2022-12-31T04:21:58;2.17;;;0.28;;
25069;SDS011;13064;48.162;11.536;2022-12-31T04:24:25;0.10;;;0.10;;
25069;SDS011;13064;48.162;11.536;2022-12-31T04:26:53;0.20;;;0.20;;
25069;SDS011;13064;48.162;11.536;2022-12-31T04:29:20;1.55;;;0.20;;
25069;SDS011;13064;48.162;11.536;2022-12-31T04:31:48;0.10;;;0.10;;
25069;SDS011;13064;48.162;11.536;2022-12-31T04:34:16;0.25;;;0.10;;
25069;SDS011;13064;48.162;11.536;2022-12-31T04:36:43;0.68;;;0.40;;
25069;SDS011;13064;48.162;11.536;2022-12-31T04:39:11;0.35;;;0.10;;
25069;SDS011;13064;48.162;11.536;2022-12-31T04:41:39;0.28;;;0.28;;
25069;SDS011;13064;48.162;11.536;2022-12-31T04:44:06;0.10;;;0.10;;
25069;SDS011;13064;48.162;11.536;2022-12-31T04:46:34;0.20;;;0.13;;
25069;SDS011;13064;48.162;11.536;2022-12-31T04:49:01;0.68;;;0.22;;
25069;SDS011;13064;48.162;11.536;2022-12-31T04:51:29;0.30;;;0.20;;
25069;SDS011;13064;48.162;11.536;2022-12-31T04:53:57;0.75;;;0.20;;
25069;SDS011;13064;48.162;11.536;2022-12-31T04:56:25;1.17;;;0.10;;
25069;SDS011;13064;48.162;11.536;2022-12-31T04:58:53;0.22;;;0.10;;
25069;SDS011;13064;48.162;11.536;2022-12-31T05:01:21;0.32;;;0.20;;
25069;SDS011;13064;48.162;11.536;2022-12-31T05:03:49;0.35;;;0.10;;
25069;SDS011;13064;48.162;11.536;2022-12-31T05:06:18;0.50;;;0.17;;
25069;SDS011;13064;48.162;11.536;2022-12-31T05:08:45;0.50;;;0.30;;
25069;SDS011;13064;48.162;11.536;2022-12-31T05:11:13;0.17;;;0.17;;
25069;SDS011;13064;48.162;11.536;2022-12-31T05:13:41;1.80;;;0.10;;
25069;SDS011;13064;48.162;11.536;2022-12-31T05:16:09;0.30;;;0.10;;
25069;SDS011;13064;48.162;11.536;2022-12-31T05:18:37;0.10;;;0.10;;
25069;SDS011;13064;48.162;11.536;2022-12-31T05:21:05;0.10;;;0.10;;
25069;SDS011;13064;48.162;11.536;2022-12-31T05:23:32;0.10;;;0.10;;
25069;SDS011;13064;48.162;11.536;2022-12-31T05:26:00;0.32;;;0.13;;
25069;SDS011;13064;48.162;11.536;2022-12-31T05:28:28;0.28;;;0.10;;
25069;SDS011;13064;48.162;11.536;2022-12-31T05:30:55;0.15;;;0.15;;
25069;SDS011;13064;48.162;11.536;2022-12-31T05:33:23;0.08;;;0.03;;
25069;SDS011;13064;48.162;11.536;2022-12-31T05:35:51;0.25;;;0.10;;
25069;SDS011;13064;48.162;11.536;2022-12-31T05:38:20;0.63;;;0.38;;
25069;SDS011;13064;48.162;11.536;2022-12-31T05:40:48;0.10;;;0.10;;
25069;SDS011;13064;48.162;11.536;2022-12-31T05:43:15;0.30;;;0.30;;
25069;SDS011;13064;48.162;11.536;2022-12-31T05:45:43;1.17;;;0.20;;
25069;SDS011;13064;48.162;11.536;2022-12-31T05:48:10;0.40;;;0.30;;
25069;SDS011;13064;48.162;11.536;2022-12-31T05:50:38;0.40;;;0.20;;
25069;SDS011;13064;48.162;11.536;2022-12-31T05:53:07;0.10;;;0.10;;
25069;SDS011;13064;48.162;11.536;2022-12-31T05:55:34;0.93;;;0.20;;
25069;SDS011;13064;48.162;11.536;2022-12-31T05:58:02;0.20;;;0.20;;
25069;SDS011;13064;48.162;11.536;2022-12-31T06:00:29;0.08;;;0.08;;
25069;SDS011;13064;48.162;11.536;2022-12-31T06:02:57;1.13;;;0.20;;
25069;SDS011;13064;48.162;11.536;2022-12-31T06:05:25;0.25;;;0.15;;
25069;SDS011;13064;48.162;11.536;2022-12-31T06:07:52;0.17;;;0.10;;
25069;SDS011;13064;48.162;11.536;2022-12-31T06:10:20;0.22;;;0.22;;
25069;SDS011;13064;48.162;11.536;2022-12-31T06:12:47;0.85;;;0.30;;
25069;SDS011;13064;48.162;11.536;2022-12-31T06:15:15;0.40;;;0.20;;
25069;SDS011;13064;48.162;11.536;2022-12-31T06:17:42;0.93;;;0.20;;
25069;SDS011;13064;48.162;11.536;2022-12-31T06:20:10;0.10;;;0.10;;
25069;SDS011;13064;48.162;11.536;2022-12-31T06:22:39;0.20;;;0.20;;
25069;SDS011;13064;48.162;11.536;2022-12-31T06:25:06;0.40;;;0.32;;
25069;SDS011;13064;48.162;11.536;2022-12-31T06:27:34;0.80;;;0.30;;
25069;SDS011;13064;48.162;11.536;2022-12-31T06:30:02;1.27;;;0.35;;
25069;SDS011;13064;48.162;11.536;2022-12-31T06:32:29;0.30;;;0.20;;
25069;SDS011;13064;48.162;11.536;2022-12-31T06:34:57;0.20;;;0.10;;
25069;SDS011;13064;48.162;11.536;2022-12-31T06:37:24;0.35;;;0.20;;
25069;SDS011;13064;48.162;11.536;2022-12-31T06:39:52;0.50;;;0.25;;
25069;SDS011;13064;48.162;11.536;2022-12-31T06:42:19;1.23;;;0.52;;
25069;SDS011;13064;48.162;11.536;2022-12-31T06:44:47;0.57;;;0.22;;
25069;SDS011;13064;48.162;11.536;2022-12-31T06:47:14;0.13;;;0.13;;
25069;SDS011;13064;48.162;11.536;2022-12-31T06:49:42;0.70;;;0.40;;
25069;SDS011;13064;48.162;11.536;2022-12-31T06:52:09;0.63;;;0.20;;
25069;SDS011;13064;48.162;11.536;2022-12-31T06:54:37;0.22;;;0.22;;
25069;SDS011;13064;48.162;11.536;2022-12-31T06:57:05;0.32;;;0.20;;
25069;SDS011;13064;48.162;11.536;2022-12-31T06:59:33;0.20;;;0.20;;
25069;SDS011;13064;48.162;11.536;2022-12-31T07:02:06;0.50;;;0.25;;
25069;SDS011;13064;48.162;11.536;2022-12-31T07:08:05;0.30;;;0.30;;
25069;SDS011;13064;48.162;11.536;2022-12-31T07:16:12;0.40;;;0.40;;
25069;SDS011;13064;48.162;11.536;2022-12-31T07:20:50;0.35;;;0.30;;
25069;SDS011;13064;48.162;11.536;2022-12-31T07:23:18;0.45;;;0.30;;
25069;SDS011;13064;48.162;11.536;2022-12-31T07:26:34;0.88;;;0.30;;
25069;SDS011;13064;48.162;11.536;2022-12-31T07:37:06;0.50;;;0.25;;
25069;SDS011;13064;48.162;11.536;2022-12-31T07:39:38;0.57;;;0.20;;
25069;SDS011;13064;48.162;11.536;2022-12-31T07:42:19;1.90;;;0.40;;
25069;SDS011;13064;48.162;11.536;2022-12-31T07:45:13;0.47;;;0.30;;
25069;SDS011;13064;48.162;11.536;2022-12-31T07:47:44;0.30;;;0.30;;
25069;SDS011;13064;48.162;11.536;2022-12-31T07:50:13;0.73;;;0.32;;
25069;SDS011;13064;48.162;11.536;2022-12-31T07:52:41;0.30;;;0.30;;
25069;SDS011;13064;48.162;11.536;2022-12-31T07:55:09;0.90;;;0.55;;
25069;SDS011;13064;48.162;11.536;2022-12-31T07:57:41;2.15;;;0.70;;
25069;SDS011;13064;48.162;11.536;2022-12-31T08:00:15;1.42;;;0.60;;
25069;SDS011;13064;48.162;11.536;2022-12-31T08:03:08;2.38;;;0.80;;
25069;SDS011;13064;48.162;11.536;2022-12-31T08:05:36;0.60;;;0.57;;
25069;SDS011;13064;48.162;11.536;2022-12-31T08:13:29;0.75;;;0.60;;
25069;SDS011;13064;48.162;11.536;2022-12-31T08:15:56;1.63;;;0.60;;
25069;SDS011;13064;48.162;11.536;2022-12-31T08:18:24;0.75;;;0.60;;
25069;SDS011;13064;48.162;11.536;2022-12-31T08:21:12;1.48;;;0.90;;
25069;SDS011;13064;48.162;11.536;2022-12-31T08:31:17;1.20;;;0.90;;
25069;SDS011;13064;48.162;11.536;2022-12-31T08:38:54;1.92;;;1.00;;
25069;SDS011;13064;48.162;11.536;2022-12-31T08:46:31;0.80;;;0.80;;
25069;SDS011;13064;48.162;11.536;2022-12-31T08:49:00;0.50;;;0.50;;
25069;SDS011;13064;48.162;11.536;2022-12-31T08:51:28;0.82;;;0.68;;
25069;SDS011;13064;48.162;11.536;2022-12-31T08:53:55;1.38;;;0.65;;
25069;SDS011;13064;48.162;11.536;2022-12-31T08:56:28;3.33;;;0.88;;
25069;SDS011;13064;48.162;11.536;2022-12-31T08:59:02;0.98;;;0.60;;
25069;SDS011;13064;48.162;11.536;2022-12-31T09:01:39;0.50;;;0.50;;
25069;SDS011;13064;48.162;11.536;2022-12-31T09:04:16;0.55;;;0.52;;
25069;SDS011;13064;48.162;11.536;2022-12-31T09:06:57;1.60;;;0.80;;
25069;SDS011;13064;48.162;11.536;2022-12-31T09:09:44;0.65;;;0.40;;
25069;SDS011;13064;48.162;11.536;2022-12-31T09:15:08;2.03;;;0.57;;
25069;SDS011;13064;48.162;11.536;2022-12-31T09:17:44;0.88;;;0.60;;
25069;SDS011;13064;48.162;11.536;2022-12-31T09:20:17;0.40;;;0.40;;
25069;SDS011;13064;48.162;11.536;2022-12-31T09:22:48;1.88;;;0.35;;
25069;SDS011;13064;48.162;11.536;2022-12-31T09:25:16;1.55;;;0.55;;
25069;SDS011;13064;48.162;11.536;2022-12-31T09:27:46;0.52;;;0.20;;
25069;SDS011;13064;48.162;11.536;2022-12-31T09:30:18;0.43;;;0.32;;
25069;SDS011;13064;48.162;11.536;2022-12-31T09:35:31;1.38;;;0.35;;
25069;SDS011;13064;48.162;11.536;2022-12-31T09:54:22;0.73;;;0.52;;
25069;SDS011;13064;48.162;11.536;2022-12-31T10:01:54;0.95;;;0.73;;
25069;SDS011;13064;48.162;11.536;2022-12-31T10:09:53;1.65;;;0.77;;
25069;SDS011;13064;48.162;11.536;2022-12-31T10:17:33;2.13;;;0.70;;
25069;SDS011;13064;48.162;11.536;2022-12-31T10:23:02;0.50;;;0.50;;
25069;SDS011;13064;48.162;11.536;2022-12-31T10:25:49;0.50;;;0.50;;
25069;SDS011;13064;48.162;11.536;2022-12-31T10:30:54;1.27;;;0.68;;
25069;SDS011;13064;48.162;11.536;2022-12-31T10:42:04;0.65;;;0.47;;
25069;SDS011;13064;48.162;11.536;2022-12-31T10:52:48;2.40;;;0.38;;
25069;SDS011;13064;48.162;11.536;2022-12-31T11:01:21;1.58;;;0.50;;
25069;SDS011;13064;48.162;11.536;2022-12-31T11:06:11;0.82;;;0.50;;
25069;SDS011;13064;48.162;11.536;2022-12-31T11:08:48;0.50;;;0.40;;
25069;SDS011;13064;48.162;11.536;2022-12-31T11:11:27;0.98;;;0.88;;
25069;SDS011;13064;48.162;11.536;2022-12-31T11:16:47;1.25;;;0.52;;
25069;SDS011;13064;48.162;11.536;2022-12-31T11:30:03;1.65;;;0.30;;
25069;SDS011;13064;48.162;11.536;2022-12-31T11:37:46;0.55;;;0.40;;
25069;SDS011;13064;48.162;11.536;2022-12-31T11:49:06;1.02;;;0.40;;
25069;SDS011;13064;48.162;11.536;2022-12-31T11:56:50;2.25;;;0.70;;
25069;SDS011;13064;48.162;11.536;2022-12-31T11:59:20;2.78;;;1.10;;
25069;SDS011;13064;48.162;11.536;2022-12-31T12:01:51;3.30;;;1.60;;
25069;SDS011;13064;48.162;11.536;2022-12-31T12:04:21;4.72;;;1.88;;
25069;SDS011;13064;48.162;11.536;2022-12-31T12:06:48;2.15;;;1.15;;
25069;SDS011;13064;48.162;11.536;2022-12-31T12:09:21;3.35;;;1.50;;
25069;SDS011;13064;48.162;11.536;2022-12-31T12:11:59;2.30;;;1.00;;
25069;SDS011;13064;48.162;11.536;2022-12-31T12:14:31;2.05;;;1.15;;
25069;SDS011;13064;48.162;11.536;2022-12-31T12:17:01;2.33;;;0.98;;
25069;SDS011;13064;48.162;11.536;2022-12-31T12:19:32;2.78;;;1.15;;
25069;SDS011;13064;48.162;11.536;2022-12-31T12:22:13;1.27;;;0.70;;
25069;SDS011;13064;48.162;11.536;2022-12-31T12:24:50;2.25;;;0.50;;
25069;SDS011;13064;48.162;11.536;2022-12-31T12:27:22;0.50;;;0.50;;
25069;SDS011;13064;48.162;11.536;2022-12-31T12:29:50;0.70;;;0.57;;
25069;SDS011;13064;48.162;11.536;2022-12-31T12:32:19;1.27;;;0.55;;
25069;SDS011;13064;48.162;11.536;2022-12-31T12:34:47;0.70;;;0.30;;
25069;SDS011;13064;48.162;11.536;2022-12-31T12:37:32;0.68;;;0.50;;
25069;SDS011;13064;48.162;11.536;2022-12-31T12:40:02;2.03;;;0.50;;
25069;SDS011;13064;48.162;11.536;2022-12-31T12:42:29;1.02;;;0.82;;
25069;SDS011;13064;48.162;11.536;2022-12-31T12:45:09;1.00;;;0.80;;
25069;SDS011;13064;48.162;11.536;2022-12-31T12:47:39;1.13;;;1.00;;
25069;SDS011;13064;48.162;11.536;2022-12-31T12:50:12;1.55;;;0.80;;
25069;SDS011;13064;48.162;11.536;2022-12-31T13:00:37;1.80;;;0.80;;
25069;SDS011;13064;48.162;11.536;2022-12-31T13:03:14;1.05;;;0.70;;
25069;SDS011;13064;48.162;11.536;2022-12-31T13:16:12;0.90;;;0.70;;
25069;SDS011;13064;48.162;11.536;2022-12-31T13:23:48;2.17;;;0.55;;
25069;SDS011;13064;48.162;11.536;2022-12-31T13:26:29;0.70;;;0.55;;
25069;SDS011;13064;48.162;11.536;2022-12-31T13:28:58;0.95;;;0.70;;
25069;SDS011;13064;48.162;11.536;2022-12-31T13:31:32;1.58;;;0.70;;
25069;SDS011;13064;48.162;11.536;2022-12-31T13:34:06;0.90;;;0.70;;
25069;SDS011;13064;48.162;11.536;2022-12-31T13:36:39;0.77;;;0.70;;
25069;SDS011;13064;48.162;11.536;2022-12-31T13:39:18;3.22;;;0.90;;
25069;SDS011;13064;48.162;11.536;2022-12-31T13:44:41;1.95;;;0.60;;
25069;SDS011;13064;48.162;11.536;2022-12-31T13:49:45;1.98;;;0.57;;
25069;SDS011;13064;48.162;11.536;2022-12-31T13:52:20;0.65;;;0.60;;
25069;SDS011;13064;48.162;11.536;2022-12-31T14:00:29;0.95;;;0.50;;
25069;SDS011;13064;48.162;11.536;2022-12-31T14:03:15;1.83;;;0.75;;
25069;SDS011;13064;48.162;11.536;2022-12-31T14:08:13;1.30;;;0.77;;
25069;SDS011;13064;48.162;11.536;2022-12-31T14:18:36;2.35;;;1.00;;
25069;SDS011;13064;48.162;11.536;2022-12-31T14:23:45;3.13;;;1.00;;
25069;SDS011;13064;48.162;11.536;2022-12-31T14:26:25;2.05;;;1.25;;
25069;SDS011;13064;48.162;11.536;2022-12-31T14:29:00;1.55;;;1.33;;
25069;SDS011;13064;48.162;11.536;2022-12-31T14:31:32;1.55;;;1.08;;
25069;SDS011;13064;48.162;11.536;2022-12-31T14:34:07;10.57;;;4.53;;
25069;SDS011;13064;48.162;11.536;2022-12-31T14:36:51;5.35;;;2.60;;
25069;SDS011;13064;48.162;11.536;2022-12-31T14:39:36;4.07;;;2.00;;
25069;SDS011;13064;48.162;11.536;2022-12-31T14:44:40;4.15;;;1.83;;
25069;SDS011;13064;48.162;11.536;2022-12-31T14:47:20;2.47;;;1.50;;
25069;SDS011;13064;48.162;11.536;2022-12-31T14:50:03;2.72;;;1.40;;
25069;SDS011;13064;48.162;11.536;2022-12-31T14:52:32;6.03;;;1.50;;
25069;SDS011;13064;48.162;11.536;2022-12-31T14:55:09;2.05;;;1.23;;
25069;SDS011;13064;48.162;11.536;2022-12-31T14:57:38;3.63;;;1.52;;
25069;SDS011;13064;48.162;11.536;2022-12-31T15:05:26;4.68;;;1.73;;
25069;SDS011;13064;48.162;11.536;2022-12-31T15:07:58;1.95;;;1.55;;
25069;SDS011;13064;48.162;11.536;2022-12-31T15:21:09;8.55;;;2.67;;
25069;SDS011;13064;48.162;11.536;2022-12-31T15:23:40;7.53;;;2.90;;
25069;SDS011;13064;48.162;11.536;2022-12-31T15:26:18;5.13;;;2.40;;
25069;SDS011;13064;48.162;11.536;2022-12-31T15:28:53;5.97;;;2.45;;
25069;SDS011;13064;48.162;11.536;2022-12-31T15:31:22;5.38;;;2.80;;
25069;SDS011;13064;48.162;11.536;2022-12-31T15:36:25;10.13;;;4.32;;
25069;SDS011;13064;48.162;11.536;2022-12-31T15:41:39;12.73;;;5.88;;
25069;SDS011;13064;48.162;11.536;2022-12-31T15:44:48;12.30;;;8.88;;
25069;SDS011;13064;48.162;11.536;2022-12-31T15:47:29;35.10;;;20.10;;
25069;SDS011;13064;48.162;11.536;2022-12-31T15:50:02;18.60;;;8.32;;
25069;SDS011;13064;48.162;11.536;2022-12-31T15:52:41;11.70;;;7.05;;
25069;SDS011;13064;48.162;11.536;2022-12-31T15:55:31;18.95;;;10.85;;
25069;SDS011;13064;48.162;11.536;2022-12-31T15:58:02;21.27;;;11.23;;
25069;SDS011;13064;48.162;11.536;2022-12-31T16:00:37;36.38;;;19.92;;
25069;SDS011;13064;48.162;11.536;2022-12-31T16:03:17;31.00;;;15.52;;
25069;SDS011;13064;48.162;11.536;2022-12-31T16:05:45;20.05;;;12.60;;
25069;SDS011;13064;48.162;11.536;2022-12-31T16:08:18;20.38;;;11.75;;
25069;SDS011;13064;48.162;11.536;2022-12-31T16:10:46;31.02;;;17.90;;
25069;SDS011;13064;48.162;11.536;2022-12-31T16:13:21;21.65;;;12.00;;
25069;SDS011;13064;48.162;11.536;2022-12-31T16:15:50;47.15;;;25.33;;
25069;SDS011;13064;48.162;11.536;2022-12-31T16:18:19;20.95;;;10.07;;
25069;SDS011;13064;48.162;11.536;2022-12-31T16:20:48;48.03;;;24.45;;
25069;SDS011;13064;48.162;11.536;2022-12-31T16:23:21;22.83;;;14.80;;
25069;SDS011;13064;48.162;11.536;2022-12-31T16:25:50;17.17;;;8.50;;
25069;SDS011;13064;48.162;11.536;2022-12-31T16:28:19;20.35;;;9.75;;
25069;SDS011;13064;48.162;11.536;2022-12-31T16:30:54;23.02;;;10.85;;
25069;SDS011;13064;48.162;11.536;2022-12-31T16:33:23;14.93;;;8.98;;
25069;SDS011;13064;48.162;11.536;2022-12-31T16:35:55;23.73;;;14.55;;
25069;SDS011;13064;48.162;11.536;2022-12-31T16:38:29;28.00;;;16.60;;
25069;SDS011;13064;48.162;11.536;2022-12-31T16:43:37;25.98;;;15.10;;
25069;SDS011;13064;48.162;11.536;2022-12-31T16:46:10;22.50;;;13.13;;
25069;SDS011;13064;48.162;11.536;2022-12-31T16:48:44;18.45;;;10.10;;
25069;SDS011;13064;48.162;11.536;2022-12-31T16:51:14;23.65;;;11.98;;
25069;SDS011;13064;48.162;11.536;2022-12-31T16:53:43;18.90;;;9.45;;
25069;SDS011;13064;48.162;11.536;2022-12-31T16:56:14;19.15;;;10.57;;
25069;SDS011;13064;48.162;11.536;2022-12-31T16:58:44;21.33;;;11.82;;
25069;SDS011;13064;48.162;11.536;2022-12-31T17:01:24;27.75;;;13.13;;
25069;SDS011;13064;48.162;11.536;2022-12-31T17:03:54;17.42;;;9.25;;
25069;SDS011;13064;48.162;11.536;2022-12-31T17:06:24;22.38;;;12.65;;
25069;SDS011;13064;48.162;11.536;2022-12-31T17:11:35;28.30;;;15.13;;
25069;SDS011;13064;48.162;11.536;2022-12-31T17:14:10;44.60;;;24.67;;
25069;SDS011;13064;48.162;11.536;2022-12-31T17:16:52;30.90;;;18.52;;
25069;SDS011;13064;48.162;11.536;2022-12-31T17:19:37;33.33;;;18.63;;
25069;SDS011;13064;48.162;11.536;2022-12-31T17:22:12;42.22;;;24.95;;
25069;SDS011;13064;48.162;11.536;2022-12-31T17:24:40;46.63;;;25.67;;
25069;SDS011;13064;48.162;11.536;2022-12-31T17:27:08;44.10;;;24.98;;
25069;SDS011;13064;48.162;11.536;2022-12-31T17:29:36;40.25;;;24.30;;
25069;SDS011;13064;48.162;11.536;2022-12-31T17:32:04;35.22;;;22.20;;
25069;SDS011;13064;48.162;11.536;2022-12-31T17:34:33;32.65;;;20.10;;
25069;SDS011;13064;48.162;11.536;2022-12-31T17:37:09;38.05;;;21.42;;
25069;SDS011;13064;48.162;11.536;2022-12-31T17:39:45;41.83;;;24.63;;
25069;SDS011;13064;48.162;11.536;2022-12-31T17:42:14;41.10;;;23.33;;
25069;SDS011;13064;48.162;11.536;2022-12-31T17:44:46;38.78;;;23.40;;
25069;SDS011;13064;48.162;11.536;2022-12-31T17:47:14;41.50;;;24.13;;
25069;SDS011;13064;48.162;11.536;2022-12-31T17:49:43;37.90;;;22.38;;
25069;SDS011;13064;48.162;11.536;2022-12-31T17:52:11;32.47;;;20.80;;
25069;SDS011;13064;48.162;11.536;2022-12-31T17:54:40;31.25;;;17.88;;
25069;SDS011;13064;48.162;11.536;2022-12-31T17:57:16;28.77;;;16.10;;
25069;SDS011;13064;48.162;11.536;2022-12-31T17:59:47;34.45;;;20.17;;
25069;SDS011;13064;48.162;11.536;2022-12-31T18:02:15;28.50;;;17.58;;
25069;SDS011;13064;48.162;11.536;2022-12-31T18:04:43;28.67;;;18.63;;
25069;SDS011;13064;48.162;11.536;2022-12-31T18:07:11;24.80;;;16.75;;
25069;SDS011;13064;48.162;11.536;2022-12-31T18:09:39;20.60;;;13.63;;
25069;SDS011;13064;48.162;11.536;2022-12-31T18:12:06;26.80;;;15.93;;
25069;SDS011;13064;48.162;11.536;2022-12-31T18:14:34;28.50;;;16.40;;
25069;SDS011;13064;48.162;11.536;2022-12-31T18:17:02;24.65;;;14.10;;
25069;SDS011;13064;48.162;11.536;2022-12-31T18:19:29;23.42;;;14.95;;
25069;SDS011;13064;48.162;11.536;2022-12-31T18:22:17;21.55;;;13.35;;
25069;SDS011;13064;48.162;11.536;2022-12-31T18:24:45;29.98;;;14.85;;
25069;SDS011;13064;48.162;11.536;2022-12-31T18:27:15;27.00;;;15.50;;
25069;SDS011;13064;48.162;11.536;2022-12-31T18:29:43;29.27;;;14.93;;
25069;SDS011;13064;48.162;11.536;2022-12-31T18:32:27;28.05;;;16.23;;
25069;SDS011;13064;48.162;11.536;2022-12-31T18:34:55;36.72;;;21.10;;
25069;SDS011;13064;48.162;11.536;2022-12-31T18:37:22;33.95;;;19.33;;
25069;SDS011;13064;48.162;11.536;2022-12-31T18:39:50;32.63;;;18.88;;
25069;SDS011;13064;48.162;11.536;2022-12-31T18:42:18;25.08;;;16.08;;
25069;SDS011;13064;48.162;11.536;2022-12-31T18:44:46;29.67;;;16.58;;
25069;SDS011;13064;48.162;11.536;2022-12-31T18:47:15;23.92;;;15.02;;
25069;SDS011;13064;48.162;11.536;2022-12-31T18:49:43;30.63;;;18.00;;
25069;SDS011;13064;48.162;11.536;2022-12-31T18:52:14;25.70;;;14.45;;